Time;durP1;ratioP1;P1;durP2;ratioP2;P2;SDS_P1;SDS_P2;PMS_P1;PMS_P2;Temp;Humidity;BMP_temperature;BMP_pressure;BME280_temperature;BME280_humidity;BME280_pressure;Samples;Min_cycle;Max_cycle;Signal;HPM_P1;HPM_P2
2024/01/26 00:05:30;;;;;;;1.80;1.70;;;;;;;0.65;100.00;99971.66;435522;1258;139894;-59
2024/01/26 00:15:37;;;;;;;1.60;1.30;;;;;;;0.65;100.00;99971.32;436849;1257;140425;-60
2024/01/26 00:25:43;;;;;;;2.00;1.80;;;;;;;0.64;100.00;99984.77;433951;1259;140132;-59
2024/01/26 00:35:49;;;;;;;2.40;2.00;;;;;;;0.64;100.00;99994.43;441409;1258;139527;-58
2024/01/26 00:45:55;;;;;;;2.00;1.80;;;;;;;0.63;100.00;100004.61;432778;1258;141186;-59
2024/01/26 00:56:01;;;;;;;2.70;2.40;;;;;;;0.63;100.00;100007.53;432768;1258;139826;-60
2024/01/26 01:06:07;;;;;;;1.90;1.80;;;;;;;0.63;100.00;100013.91;432656;1257;140159;-59
2024/01/26 01:16:15;;;;;;;3.80;2.30;;;;;;;0.62;100.00;100015.30;432512;1259;139508;-59
2024/01/26 01:26:20;;;;;;;4.10;3.00;;;;;;;0.58;100.00;100013.48;432840;1258;141098;-60
2024/01/26 01:36:26;;;;;;;5.80;4.70;;;;;;;0.57;100.00;100018.66;432582;1260;140196;-60
2024/01/26 01:46:32;;;;;;;4.20;3.70;;;;;;;0.52;100.00;100019.77;432463;1259;141155;-59
2024/01/26 01:56:40;;;;;;;6.70;4.90;;;;;;;0.50;100.00;100030.98;432708;1259;140893;-60
2024/01/26 02:06:56;;;;;;;5.00;4.50;;;;;;;0.51;100.00;100040.98;432597;1260;140506;-61
2024/01/26 02:17:03;;;;;;;6.10;5.30;;;;;;;0.52;100.00;100045.62;435612;1258;139727;-60
2024/01/26 02:27:09;;;;;;;5.80;4.00;;;;;;;0.54;100.00;100041.61;434907;1260;170741;-60
2024/01/26 02:37:15;;;;;;;5.50;4.40;;;;;;;0.57;100.00;100043.64;432562;1259;139405;-60
2024/01/26 02:47:21;;;;;;;5.30;4.70;;;;;;;0.58;100.00;100046.90;432379;1256;140826;-59
2024/01/26 02:57:26;;;;;;;5.70;4.00;;;;;;;0.56;100.00;100049.86;433067;1261;139474;-61
2024/01/26 03:07:32;;;;;;;5.50;4.80;;;;;;;0.51;100.00;100057.16;432862;1258;139799;-59
2024/01/26 03:17:38;;;;;;;4.70;3.50;;;;;;;0.46;100.00;100063.27;432711;1261;140114;-59
2024/01/26 03:27:43;;;;;;;3.50;2.90;;;;;;;0.44;100.00;100078.12;432661;1260;141384;-60
2024/01/26 03:37:49;;;;;;;3.90;2.60;;;;;;;0.43;100.00;100085.02;432576;1259;140205;-58
2024/01/26 03:47:55;;;;;;;4.70;3.80;;;;;;;0.43;100.00;100076.06;432406;1258;141142;-59
2024/01/26 03:58:01;;;;;;;5.40;3.20;;;;;;;0.43;100.00;100079.34;432648;1258;139733;-59
2024/01/26 04:08:08;;;;;;;3.80;3.00;;;;;;;0.42;100.00;100087.80;432544;1258;141754;-59
2024/01/26 04:18:13;;;;;;;3.70;3.00;;;;;;;0.40;100.00;100091.60;435571;1260;140805;-59
2024/01/26 04:28:19;;;;;;;3.80;3.30;;;;;;;0.39;100.00;100097.65;432507;1259;139798;-58
2024/01/26 04:38:25;;;;;;;3.50;3.10;;;;;;;0.38;100.00;100102.66;432721;1258;141274;-59
2024/01/26 04:48:31;;;;;;;3.70;3.30;;;;;;;0.39;100.00;100107.98;432519;1261;139993;-59
2024/01/26 04:58:37;;;;;;;6.20;4.50;;;;;;;0.39;100.00;100115.21;432559;1259;139789;-59
2024/01/26 05:08:43;;;;;;;4.50;4.00;;;;;;;0.39;100.00;100115.91;432735;1260;139613;-59
2024/01/26 05:18:48;;;;;;;4.90;3.70;;;;;;;0.40;100.00;100126.73;432393;1256;139591;-59
2024/01/26 05:28:54;;;;;;;6.70;4.90;;;;;;;0.42;100.00;100128.62;432364;1259;139354;-58
2024/01/26 05:39:00;;;;;;;4.40;3.50;;;;;;;0.43;100.00;100130.15;432775;1258;139682;-59
2024/01/26 05:49:06;;;;;;;3.60;3.20;;;;;;;0.43;100.00;100130.84;432773;1259;140864;-60
2024/01/26 05:59:14;;;;;;;4.10;3.00;;;;;;;0.45;100.00;100131.34;433058;1258;139666;-60
2024/01/26 06:09:20;;;;;;;2.20;2.00;;;;;;;0.48;100.00;100121.14;433264;1257;139772;-59
2024/01/26 06:19:26;;;;;;;2.10;1.80;;;;;;;0.49;100.00;100112.52;432840;1260;140490;-60
2024/01/26 06:29:32;;;;;;;4.60;3.40;;;;;;;0.51;100.00;100123.34;432801;1259;140589;-58
2024/01/26 06:39:37;;;;;;;10.00;4.20;;;;;;;0.53;100.00;100122.77;432770;1256;139207;-60
2024/01/26 06:49:43;;;;;;;5.30;3.20;;;;;;;0.58;100.00;100126.84;432472;1259;140426;-59
2024/01/26 06:59:50;;;;;;;3.90;3.50;;;;;;;0.64;100.00;100129.85;433135;1259;140329;-55
2024/01/26 07:09:56;;;;;;;7.50;3.80;;;;;;;0.71;100.00;100138.90;432724;1260;139612;-65
2024/01/26 07:20:03;;;;;;;3.40;2.90;;;;;;;0.80;100.00;100147.05;432598;1261;140245;-65
2024/01/26 07:30:11;;;;;;;7.90;3.40;;;;;;;0.88;100.00;100164.67;432674;1260;140530;-63
2024/01/26 07:40:17;;;;;;;4.70;2.40;;;;;;;0.98;100.00;100176.59;437769;1260;140868;-63
2024/01/26 07:50:23;;;;;;;3.10;2.20;;;;;;;1.05;100.00;100173.90;434926;1258;139415;-74
2024/01/26 08:00:29;;;;;;;11.80;2.70;;;;;;;1.17;100.00;100167.70;439342;1259;141392;-68
2024/01/26 08:10:35;;;;;;;3.80;2.80;;;;;;;1.32;100.00;100165.38;433834;1259;140054;-65
2024/01/26 08:20:41;;;;;;;5.80;4.20;;;;;;;1.47;100.00;100154.07;435129;1256;139203;-71
2024/01/26 08:30:48;;;;;;;5.20;4.00;;;;;;;1.68;100.00;100156.30;437677;1260;139718;-74
2024/01/26 08:40:54;;;;;;;5.40;3.20;;;;;;;1.92;100.00;100150.67;434997;1259;139736;-72
2024/01/26 08:51:00;;;;;;;12.10;5.20;;;;;;;2.28;100.00;100140.48;436112;1261;140406;-64
2024/01/26 09:01:06;;;;;;;7.10;3.30;;;;;;;2.60;100.00;100141.86;437513;1260;140994;-62
2024/01/26 09:11:12;;;;;;;6.60;3.80;;;;;;;2.76;100.00;100133.55;433282;1261;140508;-66
2024/01/26 09:21:18;;;;;;;7.50;2.60;;;;;;;2.83;100.00;100129.06;433238;1260;139443;-64
2024/01/26 09:31:24;;;;;;;4.00;2.30;;;;;;;2.80;100.00;100118.42;438866;1260;139810;-65
2024/01/26 09:41:30;;;;;;;4.80;2.50;;;;;;;2.85;100.00;100110.52;433894;1258;140280;-67
2024/01/26 09:51:36;;;;;;;11.30;5.70;;;;;;;2.88;100.00;100109.58;435601;1260;139016;-72
2024/01/26 10:01:47;;;;;;;10.60;6.20;;;;;;;2.97;100.00;100100.38;438086;1261;140505;-78
2024/01/26 10:11:53;;;;;;;7.10;4.20;;;;;;;3.10;100.00;100088.47;438850;1260;139915;-66
2024/01/26 10:21:59;;;;;;;10.50;4.50;;;;;;;3.21;100.00;100074.52;432995;1260;139270;-57
2024/01/26 10:32:07;;;;;;;;;;;;;;;3.14;100.00;100061.56;433594;1263;139966;-59
2024/01/26 10:42:13;;;;;;;9.70;5.80;;;;;;;3.09;100.00;100046.10;432628;1260;126432;-63
2024/01/26 10:52:20;;;;;;;11.50;8.20;;;;;;;3.03;100.00;100043.48;433125;1261;139820;-66
2024/01/26 11:02:34;;;;;;;10.00;6.20;;;;;;;3.24;100.00;100035.17;433073;1260;139558;-66
2024/01/26 11:12:41;;;;;;;14.00;7.30;;;;;;;3.52;100.00;100017.45;433170;1260;141092;-69
2024/01/26 11:22:47;;;;;;;14.20;6.40;;;;;;;3.81;100.00;100001.55;432828;1262;140006;-65
2024/01/26 11:32:53;;;;;;;18.70;11.80;;;;;;;3.90;100.00;99996.64;433660;1257;139757;-58
2024/01/26 11:42:59;;;;;;;14.90;8.60;;;;;;;3.82;100.00;99985.24;432618;1260;140775;-64
2024/01/26 11:53:06;;;;;;;13.20;9.10;;;;;;;3.75;100.00;99966.60;432744;1260;141092;-64
2024/01/26 12:03:15;;;;;;;12.80;6.70;;;;;;;3.71;100.00;99955.95;433097;1261;139726;-64
2024/01/26 12:13:22;;;;;;;14.90;8.80;;;;;;;3.48;100.00;99942.95;433333;1258;139666;-65
2024/01/26 12:23:28;;;;;;;15.40;9.50;;;;;;;3.38;100.00;99927.50;433417;1258;139796;-64
2024/01/26 12:33:37;;;;;;;23.00;11.80;;;;;;;3.44;100.00;99916.97;433681;1257;140436;-62
2024/01/26 12:43:43;;;;;;;13.60;8.80;;;;;;;3.38;100.00;99902.23;434586;1260;139636;-64
2024/01/26 12:53:50;;;;;;;19.90;11.50;;;;;;;3.32;100.00;99890.45;432805;1258;140413;-62
2024/01/26 13:03:56;;;;;;;19.40;14.10;;;;;;;3.42;100.00;99855.05;433571;1260;140544;-63
2024/01/26 13:14:02;;;;;;;22.10;14.70;;;;;;;3.61;100.00;99820.86;434964;1258;140146;-62
2024/01/26 13:24:09;;;;;;;32.70;16.70;;;;;;;3.78;100.00;99792.81;435295;1260;139514;-66
2024/01/26 13:34:16;;;;;;;17.40;8.60;;;;;;;3.91;100.00;99785.45;439623;1257;139908;-65
2024/01/26 13:44:23;;;;;;;20.70;10.70;;;;;;;3.86;100.00;99772.97;438661;1257;140403;-71
2024/01/26 13:54:29;;;;;;;12.90;8.60;;;;;;;3.82;100.00;99745.08;437873;1256;140937;-76
2024/01/26 14:04:35;;;;;;;11.90;8.00;;;;;;;3.69;100.00;99724.88;438063;1258;139217;-77
2024/01/26 14:14:40;;;;;;;30.50;15.00;;;;;;;3.47;100.00;99723.70;438256;1257;140356;-65
2024/01/26 14:24:47;;;;;;;29.60;13.30;;;;;;;3.33;100.00;99729.83;436900;1257;140225;-71
2024/01/26 14:34:54;;;;;;;17.30;9.70;;;;;;;3.39;100.00;99724.83;441301;1257;141225;-75
2024/01/26 14:45:02;;;;;;;14.00;7.40;;;;;;;3.40;100.00;99712.33;432866;1260;139204;-62
2024/01/26 14:55:11;;;;;;;14.70;8.90;;;;;;;3.30;100.00;99684.27;432696;1257;139972;-60
2024/01/26 15:05:22;;;;;;;20.30;10.70;;;;;;;3.01;100.00;99654.21;433727;1257;139576;-60
2024/01/26 15:15:28;;;;;;;19.30;12.60;;;;;;;2.71;100.00;99628.16;433411;1258;141872;-60
2024/01/26 15:25:33;;;;;;;15.30;9.40;;;;;;;2.47;100.00;99604.36;432586;1260;140687;-60
2024/01/26 15:35:39;;;;;;;20.10;11.30;;;;;;;2.14;100.00;99593.92;432595;1258;140108;-67
2024/01/26 15:45:46;;;;;;;16.00;10.50;;;;;;;1.84;100.00;99572.34;432848;1257;139449;-62
2024/01/26 15:55:52;;;;;;;19.20;14.00;;;;;;;1.60;100.00;99563.48;432723;1256;140498;-61
2024/01/26 16:05:58;;;;;;;27.40;16.10;;;;;;;1.57;100.00;99545.13;432664;1257;139664;-66
2024/01/26 16:16:04;;;;;;;21.80;10.70;;;;;;;1.60;100.00;99526.23;433365;1256;139700;-66
2024/01/26 16:26:13;;;;;;;13.10;8.20;;;;;;;1.65;100.00;99492.27;432602;1258;140840;-60
2024/01/26 16:36:19;;;;;;;16.30;10.90;;;;;;;1.70;100.00;99462.27;442322;1256;140896;-60
2024/01/26 16:46:25;;;;;;;18.60;10.00;;;;;;;1.73;100.00;99445.09;432510;1256;139883;-59
2024/01/26 16:56:30;;;;;;;19.50;12.20;;;;;;;1.77;100.00;99425.27;432654;1260;139531;-59
2024/01/26 17:06:36;;;;;;;18.50;10.10;;;;;;;1.80;100.00;99416.39;432501;1257;140655;-60
2024/01/26 17:16:42;;;;;;;20.60;14.00;;;;;;;1.84;100.00;99387.80;432444;1258;141908;-60
2024/01/26 17:26:48;;;;;;;18.80;12.00;;;;;;;1.91;100.00;99381.38;432752;1260;139734;-53
2024/01/26 17:36:53;;;;;;;17.60;11.50;;;;;;;1.99;100.00;99362.29;432798;1256;140489;-53
2024/01/26 17:46:59;;;;;;;20.20;10.80;;;;;;;2.08;100.00;99352.67;432563;1260;140769;-53
2024/01/26 17:57:06;;;;;;;21.40;11.60;;;;;;;2.18;100.00;99338.20;432787;1258;140923;-53
2024/01/26 18:07:12;;;;;;;15.40;10.30;;;;;;;2.26;100.00;99318.07;432347;1258;142068;-53
2024/01/26 18:17:17;;;;;;;22.00;11.90;;;;;;;2.31;100.00;99304.43;432500;1260;139690;-57
2024/01/26 18:27:23;;;;;;;13.70;9.20;;;;;;;2.27;100.00;99292.48;432456;1258;139950;-58
2024/01/26 18:37:29;;;;;;;18.60;10.70;;;;;;;2.23;100.00;99276.39;440164;1255;141404;-58
2024/01/26 18:47:35;;;;;;;17.00;11.30;;;;;;;2.18;100.00;99253.58;432540;1261;140173;-58
2024/01/26 18:57:41;;;;;;;19.90;12.40;;;;;;;2.12;100.00;99225.81;433086;1260;139842;-56
2024/01/26 19:07:50;;;;;;;16.50;10.40;;;;;;;2.07;100.00;99216.11;433239;1258;141840;-71
2024/01/26 19:18:00;;;;;;;19.90;12.90;;;;;;;2.05;100.00;99211.89;432333;1258;139921;-57
2024/01/26 19:28:08;;;;;;;19.30;13.30;;;;;;;2.05;100.00;99209.14;432587;1257;139894;-58
2024/01/26 19:38:14;;;;;;;14.80;9.30;;;;;;;2.04;100.00;99211.58;434437;1258;140567;-59
2024/01/26 19:48:19;;;;;;;18.80;11.90;;;;;;;2.07;100.00;99206.13;432310;1260;140222;-56
2024/01/26 19:58:25;;;;;;;20.90;12.30;;;;;;;2.11;100.00;99201.48;432644;1258;140162;-57
2024/01/26 20:08:31;;;;;;;14.60;8.50;;;;;;;2.16;100.00;99191.12;432866;1257;140401;-56
2024/01/26 20:18:37;;;;;;;17.00;9.20;;;;;;;2.22;100.00;99196.10;432476;1259;141826;-57
2024/01/26 20:28:45;;;;;;;15.10;10.40;;;;;;;2.25;100.00;99202.73;432546;1258;139697;-57
2024/01/26 20:38:54;;;;;;;13.20;8.60;;;;;;;2.29;100.00;99207.96;433388;1260;140596;-56
2024/01/26 20:49:00;;;;;;;11.10;9.00;;;;;;;2.33;100.00;99207.27;434880;1257;141125;-57
2024/01/26 20:59:06;;;;;;;10.80;8.70;;;;;;;2.45;100.00;99213.41;435719;1258;140948;-56
2024/01/26 21:09:12;;;;;;;12.20;8.70;;;;;;;2.67;100.00;99224.70;433568;1256;139403;-57
2024/01/26 21:19:19;;;;;;;11.70;10.50;;;;;;;2.93;100.00;99226.67;433220;1258;140808;-57
2024/01/26 21:29:25;;;;;;;16.30;11.40;;;;;;;3.14;100.00;99226.56;432799;1256;140240;-56
2024/01/26 21:39:30;;;;;;;10.20;8.50;;;;;;;3.33;100.00;99229.98;433465;1258;140502;-58
2024/01/26 21:49:36;;;;;;;10.20;8.80;;;;;;;3.49;100.00;99233.66;432972;1257;140522;-56
2024/01/26 21:59:46;;;;;;;8.50;6.10;;;;;;;3.61;100.00;99250.30;433009;1257;140542;-57
2024/01/26 22:09:52;;;;;;;4.20;3.40;;;;;;;3.70;100.00;99256.20;433670;1257;140246;-60
2024/01/26 22:19:59;;;;;;;5.10;3.70;;;;;;;3.76;100.00;99262.84;432791;1258;140002;-60
2024/01/26 22:30:06;;;;;;;2.60;1.70;;;;;;;3.83;100.00;99278.19;435322;1258;139433;-59
2024/01/26 22:40:14;;;;;;;3.30;2.40;;;;;;;3.93;100.00;99298.35;433022;1260;140301;-59
2024/01/26 22:50:19;;;;;;;4.20;1.80;;;;;;;3.97;100.00;99341.48;433510;1261;139883;-59
2024/01/26 23:00:27;;;;;;;4.80;1.20;;;;;;;3.87;100.00;99382.05;432904;1260;139648;-60
2024/01/26 23:10:33;;;;;;;8.40;1.50;;;;;;;3.71;100.00;99410.39;433225;1259;140751;-59
2024/01/26 23:20:39;;;;;;;3.00;0.70;;;;;;;3.56;100.00;99436.78;433255;1261;140224;-59
2024/01/26 23:30:45;;;;;;;5.10;1.60;;;;;;;3.47;100.00;99462.53;432728;1259;140587;-59
2024/01/26 23:40:51;;;;;;;5.50;2.50;;;;;;;3.41;100.00;99487.83;433085;1259;140935;-58
2024/01/26 23:50:57;;;;;;;6.00;1.40;;;;;;;3.32;100.00;99499.94;432980;1259;140525;-58
